sensor_id;sensor_type;location;lat;lon;timestamp;temperature;humidity
20598;DHT22;10457;48.770;11.446;2022-10-31T00:03:19;10.20;99.90
20598;DHT22;10457;48.770;11.446;2022-10-31T00:08:41;10.30;99.90
20598;DHT22;10457;48.770;11.446;2022-10-31T00:14:04;10.20;99.90
20598;DHT22;10457;48.770;11.446;2022-10-31T00:19:25;10.10;99.90
20598;DHT22;10457;48.770;11.446;2022-10-31T00:24:47;10.00;99.90
20598;DHT22;10457;48.770;11.446;2022-10-31T00:30:11;9.90;99.90
20598;DHT22;10457;48.770;11.446;2022-10-31T00:35:32;9.90;99.90
20598;DHT22;10457;48.770;11.446;2022-10-31T00:40:54;10.00;99.90
20598;DHT22;10457;48.770;11.446;2022-10-31T00:46:16;9.90;99.90
20598;DHT22;10457;48.770;11.446;2022-10-31T00:51:38;9.80;99.90
20598;DHT22;10457;48.770;11.446;2022-10-31T00:56:59;9.80;99.90
20598;DHT22;10457;48.770;11.446;2022-10-31T01:02:22;9.70;99.90
20598;DHT22;10457;48.770;11.446;2022-10-31T01:07:44;9.70;99.90
20598;DHT22;10457;48.770;11.446;2022-10-31T01:13:05;9.60;99.90
20598;DHT22;10457;48.770;11.446;2022-10-31T01:18:31;9.70;99.90
20598;DHT22;10457;48.770;11.446;2022-10-31T01:23:54;9.70;99.90
20598;DHT22;10457;48.770;11.446;2022-10-31T01:29:16;9.60;99.90
20598;DHT22;10457;48.770;11.446;2022-10-31T01:34:39;9.60;99.90
20598;DHT22;10457;48.770;11.446;2022-10-31T01:40:01;9.60;99.90
20598;DHT22;10457;48.770;11.446;2022-10-31T01:45:23;9.50;99.90
20598;DHT22;10457;48.770;11.446;2022-10-31T01:50:47;9.50;99.90
20598;DHT22;10457;48.770;11.446;2022-10-31T01:56:10;9.40;99.90
20598;DHT22;10457;48.770;11.446;2022-10-31T02:01:35;9.40;99.90
20598;DHT22;10457;48.770;11.446;2022-10-31T02:07:00;9.30;99.90
20598;DHT22;10457;48.770;11.446;2022-10-31T02:12:24;9.30;99.90
20598;DHT22;10457;48.770;11.446;2022-10-31T02:17:52;9.20;99.90
20598;DHT22;10457;48.770;11.446;2022-10-31T02:23:45;9.10;99.90
20598;DHT22;10457;48.770;11.446;2022-10-31T02:30:06;9.00;99.90
20598;DHT22;10457;48.770;11.446;2022-10-31T02:35:50;9.10;99.90
20598;DHT22;10457;48.770;11.446;2022-10-31T02:41:19;9.00;99.90
20598;DHT22;10457;48.770;11.446;2022-10-31T02:46:54;9.00;99.90
20598;DHT22;10457;48.770;11.446;2022-10-31T02:52:24;8.90;99.90
20598;DHT22;10457;48.770;11.446;2022-10-31T02:57:53;8.90;99.90
20598;DHT22;10457;48.770;11.446;2022-10-31T03:03:20;8.90;99.90
20598;DHT22;10457;48.770;11.446;2022-10-31T03:08:50;9.00;99.90
20598;DHT22;10457;48.770;11.446;2022-10-31T03:14:21;9.10;99.90
20598;DHT22;10457;48.770;11.446;2022-10-31T03:19:54;9.30;99.90
20598;DHT22;10457;48.770;11.446;2022-10-31T03:25:20;9.30;99.90
20598;DHT22;10457;48.770;11.446;2022-10-31T03:30:45;9.30;99.90
20598;DHT22;10457;48.770;11.446;2022-10-31T03:36:08;9.40;99.90
20598;DHT22;10457;48.770;11.446;2022-10-31T03:41:37;9.40;99.90
20598;DHT22;10457;48.770;11.446;2022-10-31T03:47:00;9.40;99.90
20598;DHT22;10457;48.770;11.446;2022-10-31T03:52:26;9.40;99.90
20598;DHT22;10457;48.770;11.446;2022-10-31T03:57:57;9.40;99.90
20598;DHT22;10457;48.770;11.446;2022-10-31T04:03:23;9.50;99.90
20598;DHT22;10457;48.770;11.446;2022-10-31T04:08:52;9.50;99.90
20598;DHT22;10457;48.770;11.446;2022-10-31T04:14:17;9.40;99.90
20598;DHT22;10457;48.770;11.446;2022-10-31T04:19:38;9.40;99.90
20598;DHT22;10457;48.770;11.446;2022-10-31T04:25:01;9.30;99.90
20598;DHT22;10457;48.770;11.446;2022-10-31T04:30:24;9.30;99.90
20598;DHT22;10457;48.770;11.446;2022-10-31T04:35:45;9.30;99.90
20598;DHT22;10457;48.770;11.446;2022-10-31T04:41:07;9.20;99.90
20598;DHT22;10457;48.770;11.446;2022-10-31T04:46:46;9.10;99.90
20598;DHT22;10457;48.770;11.446;2022-10-31T04:52:07;9.10;99.90
20598;DHT22;10457;48.770;11.446;2022-10-31T04:57:29;9.10;99.90
20598;DHT22;10457;48.770;11.446;2022-10-31T05:02:55;9.20;99.90
20598;DHT22;10457;48.770;11.446;2022-10-31T05:08:20;9.00;99.90
20598;DHT22;10457;48.770;11.446;2022-10-31T05:13:44;8.90;99.90
20598;DHT22;10457;48.770;11.446;2022-10-31T05:19:07;8.90;99.90
20598;DHT22;10457;48.770;11.446;2022-10-31T05:24:28;8.90;99.90
20598;DHT22;10457;48.770;11.446;2022-10-31T05:29:50;9.10;99.90
20598;DHT22;10457;48.770;11.446;2022-10-31T05:35:15;9.10;99.90
20598;DHT22;10457;48.770;11.446;2022-10-31T05:40:56;9.10;99.90
20598;DHT22;10457;48.770;11.446;2022-10-31T05:46:20;9.20;99.90
20598;DHT22;10457;48.770;11.446;2022-10-31T05:52:01;9.40;99.90
20598;DHT22;10457;48.770;11.446;2022-10-31T05:57:40;9.30;99.90
20598;DHT22;10457;48.770;11.446;2022-10-31T06:03:04;9.30;99.90
20598;DHT22;10457;48.770;11.446;2022-10-31T06:08:41;9.30;99.90
20598;DHT22;10457;48.770;11.446;2022-10-31T06:14:13;9.40;99.90
20598;DHT22;10457;48.770;11.446;2022-10-31T06:19:40;9.30;99.90
20598;DHT22;10457;48.770;11.446;2022-10-31T06:25:04;9.20;99.90
20598;DHT22;10457;48.770;11.446;2022-10-31T06:30:30;9.30;99.90
20598;DHT22;10457;48.770;11.446;2022-10-31T06:35:52;9.20;99.90
20598;DHT22;10457;48.770;11.446;2022-10-31T06:41:21;9.30;99.90
20598;DHT22;10457;48.770;11.446;2022-10-31T06:46:45;9.40;99.90
20598;DHT22;10457;48.770;11.446;2022-10-31T06:52:25;9.50;99.90
20598;DHT22;10457;48.770;11.446;2022-10-31T06:57:51;9.60;99.90
20598;DHT22;10457;48.770;11.446;2022-10-31T07:03:13;9.60;99.90
20598;DHT22;10457;48.770;11.446;2022-10-31T07:08:37;9.70;99.90
20598;DHT22;10457;48.770;11.446;2022-10-31T07:14:00;9.70;99.90
20598;DHT22;10457;48.770;11.446;2022-10-31T07:19:21;9.80;99.90
20598;DHT22;10457;48.770;11.446;2022-10-31T07:24:42;9.70;99.90
20598;DHT22;10457;48.770;11.446;2022-10-31T07:30:26;10.00;99.90
20598;DHT22;10457;48.770;11.446;2022-10-31T07:35:50;10.10;99.90
20598;DHT22;10457;48.770;11.446;2022-10-31T07:41:17;10.10;99.90
20598;DHT22;10457;48.770;11.446;2022-10-31T07:46:40;10.30;99.90
20598;DHT22;10457;48.770;11.446;2022-10-31T07:52:25;10.40;99.90
20598;DHT22;10457;48.770;11.446;2022-10-31T07:58:07;10.50;99.90
20598;DHT22;10457;48.770;11.446;2022-10-31T08:03:33;10.60;99.90
20598;DHT22;10457;48.770;11.446;2022-10-31T08:09:03;10.80;99.90
20598;DHT22;10457;48.770;11.446;2022-10-31T08:14:26;10.90;99.90
20598;DHT22;10457;48.770;11.446;2022-10-31T08:19:50;11.00;99.90
20598;DHT22;10457;48.770;11.446;2022-10-31T08:25:14;11.20;99.90
20598;DHT22;10457;48.770;11.446;2022-10-31T08:30:37;11.20;99.90
20598;DHT22;10457;48.770;11.446;2022-10-31T08:36:19;11.00;99.90
20598;DHT22;10457;48.770;11.446;2022-10-31T08:42:04;10.90;99.90
20598;DHT22;10457;48.770;11.446;2022-10-31T08:47:25;10.90;99.90
20598;DHT22;10457;48.770;11.446;2022-10-31T08:52:50;11.00;99.90
20598;DHT22;10457;48.770;11.446;2022-10-31T08:58:13;11.10;99.90
20598;DHT22;10457;48.770;11.446;2022-10-31T09:03:41;11.40;99.90
20598;DHT22;10457;48.770;11.446;2022-10-31T09:09:05;11.50;99.90
20598;DHT22;10457;48.770;11.446;2022-10-31T09:14:27;11.60;99.90
20598;DHT22;10457;48.770;11.446;2022-10-31T09:20:11;11.70;99.90
20598;DHT22;10457;48.770;11.446;2022-10-31T09:25:34;12.00;99.90
20598;DHT22;10457;48.770;11.446;2022-10-31T09:31:16;12.10;99.90
20598;DHT22;10457;48.770;11.446;2022-10-31T09:36:54;12.20;99.90
20598;DHT22;10457;48.770;11.446;2022-10-31T09:42:37;12.20;99.90
20598;DHT22;10457;48.770;11.446;2022-10-31T09:48:32;12.40;99.90
20598;DHT22;10457;48.770;11.446;2022-10-31T09:54:14;12.60;99.90
20598;DHT22;10457;48.770;11.446;2022-10-31T09:59:41;12.60;99.90
20598;DHT22;10457;48.770;11.446;2022-10-31T10:05:09;12.70;99.90
20598;DHT22;10457;48.770;11.446;2022-10-31T10:10:44;12.90;99.90
20598;DHT22;10457;48.770;11.446;2022-10-31T10:22:12;13.00;99.90
20598;DHT22;10457;48.770;11.446;2022-10-31T10:27:46;13.10;99.90
20598;DHT22;10457;48.770;11.446;2022-10-31T10:33:22;13.10;99.90
20598;DHT22;10457;48.770;11.446;2022-10-31T10:38:52;13.10;99.90
20598;DHT22;10457;48.770;11.446;2022-10-31T10:44:17;13.00;99.90
20598;DHT22;10457;48.770;11.446;2022-10-31T10:49:50;12.90;99.90
20598;DHT22;10457;48.770;11.446;2022-10-31T10:55:16;13.00;99.90
20598;DHT22;10457;48.770;11.446;2022-10-31T11:00:46;13.00;99.90
20598;DHT22;10457;48.770;11.446;2022-10-31T11:06:19;12.70;99.90
20598;DHT22;10457;48.770;11.446;2022-10-31T11:11:47;12.60;99.90
20598;DHT22;10457;48.770;11.446;2022-10-31T11:17:11;12.70;99.90
20598;DHT22;10457;48.770;11.446;2022-10-31T11:22:40;12.90;99.90
20598;DHT22;10457;48.770;11.446;2022-10-31T11:28:08;13.00;99.90
20598;DHT22;10457;48.770;11.446;2022-10-31T11:33:33;13.10;99.90
20598;DHT22;10457;48.770;11.446;2022-10-31T11:38:57;13.00;99.90
20598;DHT22;10457;48.770;11.446;2022-10-31T11:44:25;13.20;99.90
20598;DHT22;10457;48.770;11.446;2022-10-31T11:49:49;13.20;99.90
20598;DHT22;10457;48.770;11.446;2022-10-31T11:55:26;13.50;99.90
20598;DHT22;10457;48.770;11.446;2022-10-31T12:00:54;13.60;99.90
20598;DHT22;10457;48.770;11.446;2022-10-31T12:06:20;13.40;99.90
20598;DHT22;10457;48.770;11.446;2022-10-31T12:11:52;13.30;99.90
20598;DHT22;10457;48.770;11.446;2022-10-31T12:17:41;13.40;99.90
20598;DHT22;10457;48.770;11.446;2022-10-31T12:23:11;13.50;99.90
20598;DHT22;10457;48.770;11.446;2022-10-31T12:28:49;13.60;99.90
20598;DHT22;10457;48.770;11.446;2022-10-31T12:34:48;13.40;99.90
20598;DHT22;10457;48.770;11.446;2022-10-31T12:40:40;13.30;99.90
20598;DHT22;10457;48.770;11.446;2022-10-31T12:46:13;13.50;99.90
20598;DHT22;10457;48.770;11.446;2022-10-31T12:51:48;13.70;99.90
20598;DHT22;10457;48.770;11.446;2022-10-31T12:57:22;13.60;99.90
20598;DHT22;10457;48.770;11.446;2022-10-31T13:02:50;13.60;99.90
20598;DHT22;10457;48.770;11.446;2022-10-31T13:08:17;13.70;99.90
20598;DHT22;10457;48.770;11.446;2022-10-31T13:13:44;13.70;99.90
20598;DHT22;10457;48.770;11.446;2022-10-31T13:19:13;13.70;99.90
20598;DHT22;10457;48.770;11.446;2022-10-31T13:24:42;14.10;99.90
20598;DHT22;10457;48.770;11.446;2022-10-31T13:30:13;14.80;99.90
20598;DHT22;10457;48.770;11.446;2022-10-31T13:35:43;15.50;99.90
20598;DHT22;10457;48.770;11.446;2022-10-31T13:41:17;15.80;99.90
20598;DHT22;10457;48.770;11.446;2022-10-31T13:46:44;16.10;99.90
20598;DHT22;10457;48.770;11.446;2022-10-31T13:52:16;16.10;99.90
20598;DHT22;10457;48.770;11.446;2022-10-31T13:57:46;15.90;99.90
20598;DHT22;10457;48.770;11.446;2022-10-31T14:03:18;15.60;99.90
20598;DHT22;10457;48.770;11.446;2022-10-31T14:08:46;15.00;99.90
20598;DHT22;10457;48.770;11.446;2022-10-31T14:14:12;14.70;99.90
20598;DHT22;10457;48.770;11.446;2022-10-31T14:19:34;14.30;99.90
20598;DHT22;10457;48.770;11.446;2022-10-31T14:24:55;14.10;99.90
20598;DHT22;10457;48.770;11.446;2022-10-31T14:30:23;13.90;99.90
20598;DHT22;10457;48.770;11.446;2022-10-31T14:35:53;13.70;99.90
20598;DHT22;10457;48.770;11.446;2022-10-31T14:41:44;13.70;99.90
20598;DHT22;10457;48.770;11.446;2022-10-31T14:47:28;13.60;99.90
20598;DHT22;10457;48.770;11.446;2022-10-31T14:53:00;13.50;99.90
20598;DHT22;10457;48.770;11.446;2022-10-31T14:58:28;13.50;99.90
20598;DHT22;10457;48.770;11.446;2022-10-31T15:03:58;13.30;99.90
20598;DHT22;10457;48.770;11.446;2022-10-31T15:09:25;13.20;99.90
20598;DHT22;10457;48.770;11.446;2022-10-31T15:14:50;13.30;99.90
20598;DHT22;10457;48.770;11.446;2022-10-31T15:20:18;13.20;99.90
20598;DHT22;10457;48.770;11.446;2022-10-31T15:25:41;13.20;99.90
20598;DHT22;10457;48.770;11.446;2022-10-31T15:31:03;13.20;99.90
20598;DHT22;10457;48.770;11.446;2022-10-31T15:36:27;13.20;99.90
20598;DHT22;10457;48.770;11.446;2022-10-31T15:41:50;13.10;99.90
20598;DHT22;10457;48.770;11.446;2022-10-31T15:47:16;13.10;99.90
20598;DHT22;10457;48.770;11.446;2022-10-31T15:52:42;13.10;99.90
20598;DHT22;10457;48.770;11.446;2022-10-31T15:58:11;13.00;99.90
20598;DHT22;10457;48.770;11.446;2022-10-31T16:03:34;13.00;99.90
20598;DHT22;10457;48.770;11.446;2022-10-31T16:08:57;12.90;99.90
20598;DHT22;10457;48.770;11.446;2022-10-31T16:14:22;12.80;99.90
20598;DHT22;10457;48.770;11.446;2022-10-31T16:19:52;12.70;99.90
20598;DHT22;10457;48.770;11.446;2022-10-31T16:25:23;12.70;99.90
20598;DHT22;10457;48.770;11.446;2022-10-31T16:30:48;12.70;99.90
20598;DHT22;10457;48.770;11.446;2022-10-31T16:36:30;12.70;99.90
20598;DHT22;10457;48.770;11.446;2022-10-31T16:41:55;12.60;99.90
20598;DHT22;10457;48.770;11.446;2022-10-31T16:47:17;12.70;99.90
20598;DHT22;10457;48.770;11.446;2022-10-31T16:52:39;12.60;99.90
20598;DHT22;10457;48.770;11.446;2022-10-31T16:58:03;12.60;99.90
20598;DHT22;10457;48.770;11.446;2022-10-31T17:03:24;12.60;99.90
20598;DHT22;10457;48.770;11.446;2022-10-31T17:08:45;12.50;99.90
20598;DHT22;10457;48.770;11.446;2022-10-31T17:14:09;12.50;99.90
20598;DHT22;10457;48.770;11.446;2022-10-31T17:19:31;12.50;99.90
20598;DHT22;10457;48.770;11.446;2022-10-31T17:24:53;12.50;99.90
20598;DHT22;10457;48.770;11.446;2022-10-31T17:30:20;12.50;99.90
20598;DHT22;10457;48.770;11.446;2022-10-31T17:35:45;12.50;99.90
20598;DHT22;10457;48.770;11.446;2022-10-31T17:41:07;12.50;99.90
20598;DHT22;10457;48.770;11.446;2022-10-31T17:46:30;12.50;99.90
20598;DHT22;10457;48.770;11.446;2022-10-31T17:51:51;12.50;99.90
20598;DHT22;10457;48.770;11.446;2022-10-31T17:57:13;12.50;99.90
20598;DHT22;10457;48.770;11.446;2022-10-31T18:02:36;12.30;99.90
20598;DHT22;10457;48.770;11.446;2022-10-31T18:07:57;12.30;99.90
20598;DHT22;10457;48.770;11.446;2022-10-31T18:13:19;12.30;99.90
20598;DHT22;10457;48.770;11.446;2022-10-31T18:18:42;12.20;99.90
20598;DHT22;10457;48.770;11.446;2022-10-31T18:24:05;12.30;99.90
20598;DHT22;10457;48.770;11.446;2022-10-31T18:29:27;12.20;99.90
20598;DHT22;10457;48.770;11.446;2022-10-31T18:34:50;12.20;99.90
20598;DHT22;10457;48.770;11.446;2022-10-31T18:40:12;12.20;99.90
20598;DHT22;10457;48.770;11.446;2022-10-31T18:45:37;12.10;99.90
20598;DHT22;10457;48.770;11.446;2022-10-31T18:51:03;12.00;99.90
20598;DHT22;10457;48.770;11.446;2022-10-31T18:56:26;12.00;99.90
20598;DHT22;10457;48.770;11.446;2022-10-31T19:01:50;11.90;99.90
20598;DHT22;10457;48.770;11.446;2022-10-31T19:07:13;11.80;99.90
20598;DHT22;10457;48.770;11.446;2022-10-31T19:12:34;11.70;99.90
20598;DHT22;10457;48.770;11.446;2022-10-31T19:17:56;11.60;99.90
20598;DHT22;10457;48.770;11.446;2022-10-31T19:23:19;11.60;99.90
20598;DHT22;10457;48.770;11.446;2022-10-31T19:28:41;11.60;99.90
20598;DHT22;10457;48.770;11.446;2022-10-31T19:34:02;11.40;99.90
20598;DHT22;10457;48.770;11.446;2022-10-31T19:39:25;11.40;99.90
20598;DHT22;10457;48.770;11.446;2022-10-31T19:44:47;11.30;99.90
20598;DHT22;10457;48.770;11.446;2022-10-31T19:50:08;11.30;99.90
20598;DHT22;10457;48.770;11.446;2022-10-31T19:55:34;11.30;99.90
20598;DHT22;10457;48.770;11.446;2022-10-31T20:00:55;11.30;99.90
20598;DHT22;10457;48.770;11.446;2022-10-31T20:06:21;11.40;99.90
20598;DHT22;10457;48.770;11.446;2022-10-31T20:11:45;11.40;99.90
20598;DHT22;10457;48.770;11.446;2022-10-31T20:17:07;11.40;99.90
20598;DHT22;10457;48.770;11.446;2022-10-31T20:22:29;11.40;99.90
20598;DHT22;10457;48.770;11.446;2022-10-31T20:27:52;11.40;99.90
20598;DHT22;10457;48.770;11.446;2022-10-31T20:33:13;11.30;99.90
20598;DHT22;10457;48.770;11.446;2022-10-31T20:38:37;11.30;99.90
20598;DHT22;10457;48.770;11.446;2022-10-31T20:44:00;11.30;99.90
20598;DHT22;10457;48.770;11.446;2022-10-31T20:49:21;11.30;99.90
20598;DHT22;10457;48.770;11.446;2022-10-31T20:54:43;11.20;99.90
20598;DHT22;10457;48.770;11.446;2022-10-31T21:00:09;11.30;99.90
20598;DHT22;10457;48.770;11.446;2022-10-31T21:05:31;11.30;99.90
20598;DHT22;10457;48.770;11.446;2022-10-31T21:10:53;11.20;99.90
20598;DHT22;10457;48.770;11.446;2022-10-31T21:16:18;11.20;99.90
20598;DHT22;10457;48.770;11.446;2022-10-31T21:21:41;11.30;99.90
20598;DHT22;10457;48.770;11.446;2022-10-31T21:27:03;11.30;99.90
20598;DHT22;10457;48.770;11.446;2022-10-31T21:32:26;11.20;99.90
20598;DHT22;10457;48.770;11.446;2022-10-31T21:37:47;11.10;99.90
20598;DHT22;10457;48.770;11.446;2022-10-31T21:43:08;11.10;99.90
20598;DHT22;10457;48.770;11.446;2022-10-31T21:48:31;11.10;99.90
20598;DHT22;10457;48.770;11.446;2022-10-31T21:53:53;11.00;99.90
20598;DHT22;10457;48.770;11.446;2022-10-31T21:59:33;11.30;99.90
20598;DHT22;10457;48.770;11.446;2022-10-31T22:04:58;11.20;99.90
20598;DHT22;10457;48.770;11.446;2022-10-31T22:10:19;11.30;99.90
20598;DHT22;10457;48.770;11.446;2022-10-31T22:15:41;11.20;99.90
20598;DHT22;10457;48.770;11.446;2022-10-31T22:21:05;11.20;99.90
20598;DHT22;10457;48.770;11.446;2022-10-31T22:26:32;11.20;99.90
20598;DHT22;10457;48.770;11.446;2022-10-31T22:31:59;11.20;99.90
20598;DHT22;10457;48.770;11.446;2022-10-31T22:37:27;11.30;99.90
20598;DHT22;10457;48.770;11.446;2022-10-31T22:42:49;11.20;99.90
20598;DHT22;10457;48.770;11.446;2022-10-31T22:48:15;11.20;99.90
20598;DHT22;10457;48.770;11.446;2022-10-31T22:53:40;11.20;99.90
20598;DHT22;10457;48.770;11.446;2022-10-31T22:59:09;11.20;99.90
20598;DHT22;10457;48.770;11.446;2022-10-31T23:04:35;11.20;99.90
20598;DHT22;10457;48.770;11.446;2022-10-31T23:10:00;11.20;99.90
20598;DHT22;10457;48.770;11.446;2022-10-31T23:15:25;11.20;99.90
20598;DHT22;10457;48.770;11.446;2022-10-31T23:20:51;11.10;99.90
20598;DHT22;10457;48.770;11.446;2022-10-31T23:26:16;11.30;99.90
20598;DHT22;10457;48.770;11.446;2022-10-31T23:31:55;11.20;99.90
20598;DHT22;10457;48.770;11.446;2022-10-31T23:37:23;11.10;99.90
20598;DHT22;10457;48.770;11.446;2022-10-31T23:42:50;11.10;99.90
20598;DHT22;10457;48.770;11.446;2022-10-31T23:48:14;11.10;99.90
20598;DHT22;10457;48.770;11.446;2022-10-31T23:53:36;11.10;99.90
20598;DHT22;10457;48.770;11.446;2022-10-31T23:58:59;11.10;99.90
